Flight Track Log - Related Links

Times and Time Zones

All times are in EDT time to prevent confusion due to time zone crossing. See the QFA723 flight status page for this flight to view local times or setup timezone preferences in your user account.

Time Position Orientation Groundspeed Altitude Reporting Facility
EDT Latitude Longitude Course Direction KTS MPH feet Rate Location/Type
Wed 08:38:23 PM -34.9494 138.5304 229° Southwest 140 161  Level FlightAware ADS-B (YPAD / ADL)
Wed 08:38:41 PM -34.9574 138.5186 230° Southwest 151 174 400 1,800 Climbing FlightAware ADS-B (YPAD / ADL)
Wed 08:39:03 PM -34.9667 138.5050 230° Southwest 163 188 1,200 2,093 Climbing FlightAware ADS-B (YPAD / ADL)
Wed 08:39:24 PM -34.9785 138.4880 230° Southwest 190 219 1,900 2,195 Climbing FlightAware ADS-B (YPAD / ADL)
Wed 08:39:44 PM -34.9896 138.4717 230° Southwest 202 232 2,700 2,769 Climbing FlightAware ADS-B (YPAD / ADL)
Wed 08:40:03 PM -35.0008 138.4554 230° Southwest 212 244 3,700 3,220 Climbing FlightAware ADS-B (YPAD / ADL)
Wed 08:40:25 PM -35.0149 138.4348 230° Southwest 214 246 4,900 3,429 Climbing FlightAware ADS-B (YPAD / ADL)
Wed 08:40:45 PM -35.0251 138.4129 240° Southwest 215 247 6,100 3,000 Climbing FlightAware ADS-B (YPAD / ADL)
Wed 08:40:55 PM -35.0248 138.3992 272° West 233 268 6,400 1,800 Climbing FlightAware ADS-B (YPAD / ADL)
Wed 08:41:05 PM -35.0206 138.3872 293° West 256 295 6,700 2,057 Climbing FlightAware ADS-B (YPAD / ADL)
Wed 08:41:30 PM -34.9996 138.3602 314° West 281 323 7,600 1,733 Climbing FlightAware ADS-B (YPAD / ADL)
Wed 08:41:50 PM -34.9797 138.3362 315° West 308 354 8,000 1,200 Climbing FlightAware ADS-B (YPAD / ADL)
Wed 08:42:10 PM -34.9590 138.3112 315° West 337 388 8,400 2,045 Climbing FlightAware ADS-B (YPAD / ADL)
Wed 08:42:34 PM -34.9305 138.2770 315° West 345 397 9,500 2,727 Climbing FlightAware ADS-B (YPAD / ADL)
Wed 08:43:05 PM -34.8962 138.2361 316° Northwest 355 409 10,900 2,951 Climbing FlightAware ADS-B (YPAD / ADL)
Wed 08:43:35 PM -34.8603 138.1933 316° Northwest 356 410 12,500 3,049 Climbing FlightAware ADS-B (YPAD / ADL)
Wed 08:44:06 PM -34.8232 138.1489 316° Northwest 359 413 14,000 2,754 Climbing FlightAware ADS-B (YPAD / ADL)
Wed 08:44:36 PM -34.7887 138.1075 315° West 366 421 15,300 2,400 Climbing FlightAware ADS-B (YPAD / ADL)
Wed 08:45:06 PM -34.7512 138.0622 315° West 373 429 16,400 2,459 Climbing FlightAware ADS-B (YPAD / ADL)
Wed 08:45:37 PM -34.7133 138.0165 315° West 375 432 17,800 2,451 Climbing FlightAware ADS-B (YPAD / ADL)
Wed 08:46:17 PM -34.6647 137.9577 315° West 379 436 19,300 2,197 Climbing FlightAware ADS-B (YPAD / ADL)
Wed 08:46:48 PM -34.6248 137.9095 315° West 384 442 20,400 2,129 Climbing FlightAware ADS-B (YPAD / ADL)
Wed 08:47:19 PM -34.5853 137.8629 315° West 386 444 21,500 1,882 Climbing Aus ATC (RADAR)
Wed 08:47:39 PM -34.5599 137.8335 315° West 394 453 22,000 1,800 Climbing FlightAware ADS-B (YPAD / ADL)
Wed 08:48:09 PM -34.5175 137.7861 317° Northwest 397 457 23,000 2,000 Climbing FlightAware ADS-B (YPAD / ADL)
Wed 08:48:39 PM -34.4772 137.7418 318° Northwest 397 457 24,000 1,967 Climbing FlightAware ADS-B (YPAD / ADL)
Wed 08:49:10 PM -34.4352 137.6962 318° Northwest 396 456 25,000 1,636 Climbing FlightAware ADS-B (YPAD / ADL)
Wed 08:49:45 PM -34.3874 137.6435 318° Northwest 399 459 25,800 1,292 Climbing FlightAware ADS-B (YPAD / ADL)
Wed 08:50:15 PM -34.3465 137.5972 317° Northwest 405 466 26,400 1,200 Climbing FlightAware ADS-B (YPAD / ADL)
Wed 08:50:45 PM -34.3008 137.5607 327° Northwest 437 503 27,000 1,059 Climbing FlightAware ADS-B (YPAD / ADL)
Wed 08:51:06 PM -34.2597 137.5456 343° North 456 525 27,300 1,180 Climbing FlightAware ADS-B (YPAD / ADL)
Wed 08:51:46 PM -34.1722 137.5246 349° North 459 528 28,200 1,543 Climbing FlightAware ADS-B (YPAD / ADL)
Wed 08:52:16 PM -34.1172 137.5112 349° North 454 522 29,100 1,672 Climbing FlightAware ADS-B (YPAD / ADL)
Wed 08:52:47 PM -34.0494 137.4948 349° North 451 519 29,900 1,371 Climbing FlightAware ADS-B (YPAD / ADL)
Wed 08:53:26 PM -33.9675 137.4747 349° North 452 520 30,700 1,268 Climbing FlightAware ADS-B (YPAD / ADL)
Wed 08:53:58 PM -33.9023 137.4588 349° North 451 519 31,400 1,902 Climbing FlightAware ADS-B (YPAD / ADL)
Wed 08:54:48 PM -33.8016 137.4346 349° North 428 493 33,300 2,148 Climbing FlightAware ADS-B (YPAD / ADL)
Wed 08:55:19 PM -33.7419 137.4202 349° North 416 479 34,300 1,477 Climbing FlightAware ADS-B (YPAD / ADL)
Wed 08:55:53 PM -33.6897 137.4075 348° North 415 478 34,900 960 Climbing FlightAware ADS-B (YPAD / ADL)
Wed 08:56:34 PM -33.6027 137.3862 348° North 415 478 35,500 800 Climbing FlightAware ADS-B (YPAD / ADL)
Wed 08:57:08 PM -33.5385 137.3707 349° North 417 480 35,900 469 Climbing FlightAware ADS-B (YPAD / ADL)
Wed 08:57:38 PM -33.4792 137.3564 349° North 424 488 36,000 97 Climbing FlightAware ADS-B (YPAD / ADL)
Wed 08:58:10 PM -33.4190 137.3419 349° North 433 498 36,000  Level FlightAware ADS-B (YPAD / ADL)
Wed 08:58:40 PM -33.3588 137.3275 349° North 434 499 36,000  Level FlightAware ADS-B (YPAD / ADL)
Wed 08:59:19 PM -33.2820 137.3090 349° North 435 501 36,000 164 Level FlightAware ADS-B (YPAD / ADL)
Wed 08:59:53 PM -33.2159 137.2928 349° North 436 502 36,200  Climbing Aus ATC (RADAR)
Wed 09:00:01 PM -33.1985 137.2891 349° North 436 502 36,000 -316 Descending FlightAware ADS-B (YPAD / ADL)
Wed 09:00:31 PM -33.1411 137.2754 349° North 437 503 36,000  Level FlightAware ADS-B (YPAD / ADL)
Wed 09:01:02 PM -33.1102 137.2680 349° North 437 503 36,000  Level FlightAware ADS-B (YPAD / ADL)
Wed 09:01:32 PM -33.0180 137.2458 349° North 436 502 36,000  Level FlightAware ADS-B (YPAD / ADL)
Wed 09:02:02 PM -32.9584 137.2317 349° North 434 499 36,000  Level FlightAware ADS-B (YPAD / ADL)
Wed 09:02:33 PM -32.8980 137.2172 349° North 433 498 36,000  Level FlightAware ADS-B (YPAD / ADL)
Wed 09:03:06 PM -32.8452 137.2047 349° North 432 497 36,000  Level FlightAware ADS-B (YPAD / ADL)
Wed 09:03:36 PM -32.7739 137.1880 349° North 431 496 36,000  Level FlightAware ADS-B (YPAD / ADL)
Wed 09:04:09 PM -32.7105 137.1730 349° North 431 496 36,000  Level FlightAware ADS-B (YPAD / ADL)
Wed 09:04:43 PM -32.6432 137.1570 349° North 434 499 36,000  Level FlightAware ADS-B (YPAD / ADL)
Wed 09:05:13 PM -32.5849 137.1431 349° North 437 503 36,000 200 Level FlightAware ADS-B (YPAD / ADL)
Wed 09:05:43 PM -32.5272 137.1277 349° North 436 502 36,200 200 Climbing Aus ATC (RADAR)
Wed 09:06:13 PM -32.4664 137.1163 351° North 440 506 36,200  Level Aus ATC (RADAR)
Wed 09:07:38 PM -32.2974 137.0748 348° North 439 505 36,200  Level Aus ATC (RADAR)
Wed 09:07:53 PM -32.2678 137.0683 349° North 436 502 36,200  Level Aus ATC (RADAR)
Wed 09:08:27 PM -32.1982 137.0504 348° North 439 505 36,200  Level Aus ATC (RADAR)
Wed 09:09:17 PM -32.0977 137.0289 350° North 441 507 36,200  Level Aus ATC (RADAR)
Wed 09:09:52 PM -32.0284 137.0107 347° North 440 506 36,200  Level Aus ATC (RADAR)
Wed 09:10:37 PM -31.9371 136.9915 350° North 446 513 36,200  Level Aus ATC (RADAR)
Wed 09:11:02 PM -31.8873 136.9794 348° North 443 510 36,200  Level Aus ATC (RADAR)
Wed 09:12:07 PM -31.7563 136.9473 348° North 445 512 36,200  Level Aus ATC (RADAR)
Wed 09:12:37 PM -31.6948 136.9352 351° North 447 514 36,200  Level Aus ATC (RADAR)
Wed 09:13:02 PM -31.6446 136.9227 348° North 445 512 36,200  Level Aus ATC (RADAR)
Wed 09:13:37 PM -31.5730 136.9078 350° North 447 514 36,200  Level Aus ATC (RADAR)
Wed 09:14:27 PM -31.4722 136.8827 348° North 447 514 36,200  Level Aus ATC (RADAR)
Wed 09:15:03 PM -31.4010 136.8672 349° North 446 513 36,200  Level Aus ATC (RADAR)
Wed 09:15:57 PM -31.2884 136.8428 349° North 449 517 36,200  Level Aus ATC (RADAR)
Wed 09:16:12 PM -31.2582 136.8352 348° North 447 514 36,200  Level Aus ATC (RADAR)
Wed 09:17:17 PM -31.1269 136.8047 349° North 445 512 36,200 -6 Level Aus ATC (RADAR)
Wed 09:22:15 PM -30.5876 136.5908 341° North 36,000 -6 Descending Aus ATC (Calculated)
Wed 09:24:00 PM -30.4151 136.5228 341° North  Level FlightAware Approximate
Wed 09:25:00 PM -30.3164 136.4841 341° North  Level FlightAware Approximate
Wed 09:26:00 PM -30.2178 136.4455 341° North  Level FlightAware Approximate
Wed 09:26:56 PM -30.0816 136.3923 341° North 36,000  Level Aus ATC (Calculated)
Wed 09:27:00 PM -30.1192 136.4069 341° North  Level FlightAware Approximate
Wed 09:27:15 PM -30.0324 136.3731 341° North 36,000  Level Aus ATC (Calculated)
Wed 09:28:00 PM -29.9764 136.3513 341° North  Level FlightAware Approximate
Wed 09:29:00 PM -29.8581 136.3053 341° North  Level FlightAware Approximate
Wed 09:29:55 PM -29.7740 136.2726 341° North 36,000  Level Aus ATC (Calculated)
Wed 09:30:00 PM -29.7585 136.2666 341° North  Level FlightAware Approximate
Wed 09:31:00 PM -29.6661 136.2309 341° North  Level FlightAware Approximate
Wed 09:31:36 PM -29.5650 136.1939 341° North 36,000  Level Aus ATC (Calculated)
Wed 09:32:10 PM -29.5018 136.1702 341° North 36,000  Level Aus ATC (Calculated)
Wed 09:32:37 PM -29.4406 136.1473 341° North 36,000  Level Aus ATC (Calculated)
Wed 09:34:00 PM -29.5790 136.1987 162° South  Level FlightAware Approximate
Wed 09:34:04 PM -29.2628 136.0807 341° North 36,000  Level Aus ATC (Calculated)
Wed 09:36:00 PM -29.4561 136.1527 162° South  Level FlightAware Approximate
Wed 09:36:12 PM -29.0479 136.0007 341° North 36,000  Level Aus ATC (Calculated)
Wed 09:38:00 PM -28.8704 135.9261 342° North  Level Estimated
Wed 09:38:59 PM -28.7657 135.8961 341° North 36,000  Level Aus ATC (Calculated)
Wed 09:39:00 PM -28.7705 135.8889 342° North  Level FlightAware Approximate
Wed 09:40:00 PM -28.6634 135.8573 342° North  Level FlightAware Approximate
Wed 09:40:03 PM -28.6129 135.8397 341° North 36,000  Level Aus ATC (Calculated)
Wed 09:40:54 PM -28.5460 135.8150 341° North 36,000  Level Aus ATC (Calculated)
Wed 09:42:00 PM -28.4353 135.7730 342° North  Level FlightAware Approximate
Wed 09:43:00 PM -28.3347 135.7348 342° North  Level FlightAware Approximate
Wed 09:44:00 PM -28.2341 135.6967 342° North  Level FlightAware Approximate
Wed 09:45:00 PM -28.1334 135.6587 342° North  Level FlightAware Approximate
Wed 09:45:53 PM -27.9813 135.6084 340° North 36,000  Level Aus ATC (Calculated)
Wed 09:46:00 PM -28.0328 135.6208 342° North  Level FlightAware Approximate
Wed 09:47:00 PM -27.8694 135.5645 341° North  Level FlightAware Approximate
Wed 09:47:53 PM -27.7617 135.5286 339° North 36,000  Level Aus ATC (Calculated)
Wed 09:48:00 PM -27.7692 135.5253 341° North  Level FlightAware Approximate
Wed 09:49:00 PM -27.6507 135.4819 340° North  Level FlightAware Approximate
Wed 09:50:00 PM -27.5513 135.4402 340° North  Level FlightAware Approximate
Wed 09:51:00 PM -27.6507 135.4819 160° South  Level FlightAware Approximate
Wed 09:51:50 PM -27.0920 135.2420 340° North 450 518 36,000  Level FlightAware ADS-B
Wed 09:52:00 PM -27.5513 135.4402 340° North  Level FlightAware Approximate
Wed 09:52:22 PM -27.0320 135.2160 339° North 448 516 36,000  Level FlightAware ADS-B
Wed 09:52:57 PM -26.9640 135.1870 339° North 447 514 36,000  Level FlightAware ADS-B
Wed 09:53:17 PM -27.2336 135.3092 338° Northwest 36,000  Level Aus ATC (Calculated)
Wed 09:53:35 PM -26.8890 135.1550 339° North 446 513 36,000  Level FlightAware ADS-B
Wed 09:54:08 PM -26.8250 135.1270 339° North 444 511 36,000  Level FlightAware ADS-B
Wed 09:54:44 PM -26.7550 135.0980 340° North 444 511 36,000  Level FlightAware ADS-B
Wed 09:55:22 PM -26.6810 135.0670 339° North 443 510 36,000  Level FlightAware ADS-B
Wed 09:56:02 PM -26.6150 135.0380 339° North 442 509 36,000  Level FlightAware ADS-B
Wed 09:56:18 PM -26.8662 135.1450 339° North 27,900  Descending Aus ATC (Calculated)
Wed 09:56:39 PM -26.5360 135.0050 339° North 442 509 36,000 9,720 Climbing FlightAware ADS-B
Wed 09:56:53 PM -26.8073 135.1201 339° North 27,900  Descending Aus ATC (Calculated)
Wed 09:57:08 PM -26.4800 134.9820 339° North 441 507 36,000 9,000 Climbing FlightAware ADS-B
Wed 09:57:30 PM -26.7485 135.0952 339° North 27,900  Descending Aus ATC (Calculated)
Wed 09:57:47 PM -26.4100 134.9520 339° North 440 506 36,000 9,529 Climbing FlightAware ADS-B
Wed 09:58:12 PM -26.6896 135.0703 339° North 27,900  Descending Aus ATC (Calculated)
Wed 09:58:21 PM -26.3400 134.9230 340° North 440 506 36,000 11,302 Climbing FlightAware ADS-B
Wed 09:58:55 PM -26.2820 134.8990 340° North 440 506 36,000  Level FlightAware ADS-B
Wed 09:59:30 PM -26.2140 134.8700 339° North 440 506 36,000  Level FlightAware ADS-B
Wed 10:00:05 PM -26.1410 134.8390 339° North 442 509 36,000  Level FlightAware ADS-B
Wed 10:00:42 PM -26.0700 134.8100 340° North 442 509 36,000 -243 Level FlightAware ADS-B
Wed 10:01:12 PM -26.3365 134.9215 339° North 27,900 -486 Descending Aus ATC (Calculated)
Wed 10:01:19 PM -26.0000 134.7800 339° North 438 504 35,700 11,684 Climbing FlightAware ADS-B
Wed 10:01:50 PM -25.9420 134.7560 339° North 446 513 35,300 -1,164 Descending FlightAware ADS-B
Wed 10:02:26 PM -25.8680 134.7260 340° North 461 531 34,400 -1,297 Descending FlightAware ADS-B
Wed 10:03:04 PM -25.7940 134.6950 339° North 477 549 33,700 -971 Descending FlightAware ADS-B
Wed 10:03:34 PM -25.7270 134.6670 339° North 477 549 33,300 -618 Descending FlightAware ADS-B
Wed 10:04:12 PM -25.9831 134.7735 339° North 27,900 -474 Descending Aus ATC (Calculated)
Wed 10:04:12 PM -25.6520 134.6350 339° North 473 544 33,000 8,229 Climbing FlightAware ADS-B
Wed 10:04:47 PM -25.5820 134.6070 340° North 472 543 32,700 -514 Descending FlightAware ADS-B
Wed 10:05:22 PM -25.5080 134.5760 339° North 471 542 32,400 -609 Descending FlightAware ADS-B
Wed 10:05:56 PM -25.4370 134.5470 340° North 472 543 32,000 -909 Descending FlightAware ADS-B
Wed 10:06:28 PM -25.3710 134.5200 340° North 470 541 31,400 -1,352 Descending FlightAware ADS-B
Wed 10:07:07 PM -25.2940 134.4880 339° North 466 536 30,400 -1,800 Descending FlightAware ADS-B
Wed 10:07:11 PM -25.6296 134.6265 339° North 27,900 -2,129 Descending Aus ATC (Calculated)
Wed 10:07:38 PM -25.2310 134.4610 339° North 458 527 29,300 370 Climbing FlightAware ADS-B
Wed 10:07:41 PM -25.5706 134.6021 339° North 27,900 -1,000 Descending Aus ATC (Calculated)
Wed 10:08:32 PM -25.1360 134.4220 340° North 451 519 28,400 -1,229 Climbing FlightAware ADS-B
Wed 10:09:04 PM -25.0640 134.3930 340° North 430 495 26,200 -2,955 Descending FlightAware ADS-B
Wed 10:09:21 PM -25.3349 134.5046 340° North 27,900 -1,886 Climbing Aus ATC (Calculated)
Wed 10:09:39 PM -25.0000 134.3670 340° North 418 481 25,100 -4,528 Descending FlightAware ADS-B
Wed 10:10:14 PM -24.9380 134.3420 340° North 408 470 23,900 -2,087 Descending FlightAware ADS-B
Wed 10:10:48 PM -24.8780 134.3170 339° North 400 460 22,700 -2,026 Descending FlightAware ADS-B
Wed 10:11:31 PM -24.8050 134.2870 340° North 392 451 21,300 -1,902 Descending FlightAware ADS-B
Wed 10:11:41 PM -25.0990 134.4075 340° North 27,900 -1,846 Climbing Aus ATC (Calculated)
Wed 10:12:10 PM -24.7410 134.2610 340° North 383 441 20,100 -8,754 Descending FlightAware ADS-B
Wed 10:12:21 PM -25.0400 134.3833 340° North 2,400 -2,063 Descending Aus ATC (Calculated)
Wed 10:12:42 PM -24.6840 134.2380 340° North 375 432 19,000 16,316 Climbing FlightAware ADS-B
Wed 10:13:18 PM -24.6270 134.2150 340° North 368 423 17,900 -1,833 Descending FlightAware ADS-B
Wed 10:13:54 PM -24.5700 134.1920 340° North 360 414 16,800 -1,739 Descending FlightAware ADS-B
Wed 10:14:01 PM -24.8842 134.3197 340° North 2,400 -1,636 Descending Aus ATC (Calculated)
Wed 10:14:27 PM -24.5210 134.1720 340° North 354 407 15,900 11,810 Climbing FlightAware ADS-B
Wed 10:15:04 PM -24.4640 134.1490 340° North 345 397 14,800 -1,808 Descending FlightAware ADS-B
Wed 10:15:40 PM -24.4090 134.1260 339° North 337 388 13,700 -1,853 Descending FlightAware ADS-B
Wed 10:16:12 PM -24.3630 134.1030 336° Northwest 330 380 12,700 -1,676 Descending FlightAware ADS-B
Wed 10:16:21 PM -24.6504 134.2244 338° Northwest 2,400 -1,500 Descending Aus ATC (Calculated)
Wed 10:16:48 PM -24.3180 134.0740 330° Northwest 324 373 11,800 8,000 Climbing FlightAware ADS-B
Wed 10:16:56 PM -24.5725 134.1928 336° Northwest 2,400 -1,667 Descending Aus ATC (Calculated)
Wed 10:17:24 PM -24.2700 134.0430 330° Northwest 323 372 10,800 7,700 Climbing FlightAware ADS-B
Wed 10:17:56 PM -24.2290 134.0170 330° Northwest 315 362 10,100 -1,125 Descending FlightAware ADS-B
Wed 10:18:12 PM -24.2100 134.0050 330° Northwest 303 349 9,900 -667 Descending FlightAware ADS-B
Wed 10:18:32 PM -24.1870 133.9900 329° Northwest 290 334 9,700 -1,000 Descending FlightAware ADS-B
Wed 10:18:48 PM -24.1680 133.9780 330° Northwest 286 329 9,300 -1,459 Descending FlightAware ADS-B
Wed 10:19:09 PM -24.1440 133.9630 330° Northwest 283 326 8,800 -1,313 Descending FlightAware ADS-B
Wed 10:19:20 PM -24.1310 133.9540 328° Northwest 282 325 8,600 -1,273 Descending FlightAware ADS-B
Wed 10:19:42 PM -24.1060 133.9380 330° Northwest 281 323 8,100 -1,263 Descending FlightAware ADS-B
Wed 10:19:55 PM -24.3386 134.0980 328° Northwest 2,400 -1,125 Descending Aus ATC (Calculated)
Wed 10:19:58 PM -24.0890 133.9280 332° Northwest 283 326 7,800 15,000 Climbing FlightAware ADS-B
Wed 10:20:15 PM -24.0700 133.9150 328° Northwest 284 327 7,400 -1,371 Descending FlightAware ADS-B
Wed 10:20:33 PM -24.0520 133.9040 328° Northwest 286 329 7,000 -1,105 Descending FlightAware ADS-B
Wed 10:20:53 PM -24.0260 133.8930 339° North 281 323 6,700 -769 Descending FlightAware ADS-B
Wed 10:21:12 PM -24.0000 133.8830 341° North 273 314 6,500 -686 Descending FlightAware ADS-B
Wed 10:21:28 PM -23.9810 133.8750 339° North 268 308 6,300 -545 Descending FlightAware ADS-B
Wed 10:21:45 PM -23.9630 133.8670 338° Northwest 260 299 6,200 -545 Descending FlightAware ADS-B
Wed 10:22:01 PM -23.9450 133.8600 340° North 258 297 6,000 -1,077 Descending FlightAware ADS-B
Wed 10:22:24 PM -23.9180 133.8490 340° North 258 297 5,500 -1,200 Descending FlightAware ADS-B
Wed 10:22:36 PM -23.9060 133.8440 339° North 254 292 5,300 -1,333 Descending FlightAware ADS-B
Wed 10:22:55 PM -24.1047 134.0036 325° Northwest 2,400 -1,500 Descending Aus ATC (Calculated)
Wed 10:23:00 PM -23.8790 133.8340 339° North 246 283 4,700 6,316 Climbing FlightAware ADS-B
Wed 10:23:14 PM -23.8640 133.8280 340° North 244 281 4,400 -1,235 Descending FlightAware ADS-B
Wed 10:23:34 PM -23.8450 133.8200 339° North 237 273 4,000 -1,050 Descending FlightAware ADS-B
Wed 10:23:54 PM -23.8240 133.8110 339° North 222 255 3,700 -1,034 Descending FlightAware ADS-B
Wed 10:24:03 PM -23.8150 133.8100 354° North 216 249 3,500 -1,167 Descending FlightAware ADS-B
Wed 10:24:30 PM -23.7920 133.8190 20° North 189 217 3,000 -968 Descending FlightAware ADS-B
Wed 10:24:34 PM -23.7900 133.8220 54° Northeast 184 212 3,000 -1,000 Level FlightAware ADS-B
Wed 10:24:42 PM -23.7860 133.8280 54° Northeast 177 204 2,800 -750 Descending FlightAware ADS-B
Wed 10:24:50 PM -23.7830 133.8340 61° Northeast 164 189 2,800 -375 Level FlightAware ADS-B
Wed 10:24:58 PM -23.7820 133.8400 80° East 160 184 2,700 -857 Descending FlightAware ADS-B
Wed 10:25:04 PM -23.7810 133.8450 78° East 157 181 2,600 -923 Descending FlightAware ADS-B
Wed 10:25:11 PM -23.7810 133.8490 90° East 154 177 2,500 -1,000 Descending FlightAware ADS-B
Wed 10:25:16 PM -23.7820 133.8540 102° East 151 174 2,400 -800 Descending FlightAware ADS-B
Wed 10:25:26 PM -23.7840 133.8610 107° East 152 175 2,300 -667 Descending FlightAware ADS-B
Wed 10:25:34 PM -23.7870 133.8670 119° Southeast 154 177 2,200 -857 Descending FlightAware ADS-B
Wed 10:25:54 PM -23.7940 133.8800 120° Southeast 150 173 1,900 -878 Descending FlightAware ADS-B
Wed 10:25:55 PM -23.7927 133.8782 120° Southeast 2,400 -857 Climbing Aus ATC (Calculated)
Wed 10:26:15 PM -23.8010 133.8940 120° Southeast 150 173 1,600 -2,400 Descending FlightAware ADS-B
Wed 10:26:35 PM -23.8070 133.9050 121° Southeast 100 115 -4,800 Descending FlightAware ADS-B

Login

Don't have an account? Register now (free) for customized features, flight alerts, and more!